createdAt,value
2018-08-18T00:00:15.656Z,90.29
2018-08-18T00:01:56.937Z,90.30
2018-08-18T00:03:36.231Z,90.41
2018-08-18T00:05:12.587Z,90.30
2018-08-18T00:06:50.048Z,90.82
2018-08-18T00:08:26.029Z,90.46
2018-08-18T00:10:05.531Z,90.45
2018-08-18T00:11:40.650Z,90.48
2018-08-18T00:13:18.149Z,90.36
2018-08-18T00:14:55.577Z,90.87
2018-08-18T00:16:32.032Z,90.63
2018-08-18T00:18:10.915Z,90.53
2018-08-18T00:19:47.346Z,90.77
2018-08-18T00:21:23.345Z,90.74
2018-08-18T00:23:00.701Z,90.61
2018-08-18T00:25:12.607Z,90.52
2018-08-18T00:26:48.389Z,90.84
2018-08-18T00:28:27.101Z,90.56
2018-08-18T00:30:13.530Z,90.83
2018-08-18T00:31:50.409Z,90.88
2018-08-18T00:33:26.508Z,90.83
2018-08-18T00:35:03.156Z,90.83
2018-08-18T00:36:39.924Z,90.94
2018-08-18T00:38:15.734Z,90.87
2018-08-18T00:39:54.752Z,90.86
2018-08-18T00:41:32.891Z,91.00
2018-08-18T00:43:08.687Z,91.03
2018-08-18T00:44:45.841Z,90.48
2018-08-18T00:46:21.317Z,91.08
2018-08-18T00:47:59.698Z,91.14
2018-08-18T00:49:35.456Z,90.71
2018-08-18T00:51:14.681Z,91.34
2018-08-18T00:52:50.331Z,91.10
2018-08-18T00:54:26.425Z,91.21
2018-08-18T00:56:02.248Z,91.19
2018-08-18T00:57:37.785Z,91.13
2018-08-18T00:59:12.976Z,91.06
2018-08-18T01:00:53.608Z,91.05
2018-08-18T01:02:29.505Z,91.14
2018-08-18T01:04:09.350Z,91.34
2018-08-18T01:05:44.544Z,91.49
2018-08-18T01:07:20.717Z,91.01
2018-08-18T01:09:04.704Z,91.04
2018-08-18T01:10:52.200Z,91.13
2018-08-18T01:12:28.325Z,91.59
2018-08-18T01:14:14.424Z,91.84
2018-08-18T01:15:49.748Z,91.31
2018-08-18T01:17:25.789Z,91.75
2018-08-18T01:19:02.083Z,91.88
2018-08-18T01:20:38.568Z,91.59
2018-08-18T01:22:14.157Z,91.56
2018-08-18T01:23:49.857Z,91.74
2018-08-18T01:25:26.220Z,91.68
2018-08-18T01:27:04.390Z,91.38
2018-08-18T01:28:40.616Z,91.56
2018-08-18T01:30:20.605Z,91.90
2018-08-18T01:31:55.732Z,91.62
2018-08-18T01:33:32.461Z,91.72
2018-08-18T01:35:07.746Z,91.72
2018-08-18T01:36:47.081Z,92.06
2018-08-18T01:38:24.118Z,91.71
2018-08-18T01:40:01.314Z,91.80
2018-08-18T01:41:36.809Z,91.71
2018-08-18T01:43:11.849Z,92.06
2018-08-18T01:44:49.411Z,91.89
2018-08-18T01:46:25.643Z,91.68
2018-08-18T01:48:02.922Z,91.99
2018-08-18T01:49:40.147Z,92.19
2018-08-18T01:51:24.515Z,92.04
2018-08-18T01:52:59.934Z,91.90
2018-08-18T01:54:35.166Z,91.80
2018-08-18T01:56:13.131Z,91.84
2018-08-18T01:57:51.391Z,91.95
2018-08-18T01:59:26.838Z,91.92
2018-08-18T02:01:05.962Z,92.03
2018-08-18T02:02:40.999Z,91.95
2018-08-18T02:04:18.334Z,92.10
2018-08-18T02:05:53.603Z,92.15
2018-08-18T02:07:29.645Z,92.28
2018-08-18T02:09:07.714Z,92.02
2018-08-18T02:10:43.055Z,92.13
2018-08-18T02:12:18.478Z,92.47
2018-08-18T02:13:53.975Z,92.33
2018-08-18T02:15:29.405Z,92.29
2018-08-18T02:17:18.108Z,92.23
2018-08-18T02:18:53.353Z,91.94
2018-08-18T02:20:28.339Z,92.28
2018-08-18T02:22:03.648Z,92.29
2018-08-18T02:23:38.967Z,92.17
2018-08-18T02:25:13.852Z,92.45
2018-08-18T02:26:51.053Z,92.37
2018-08-18T02:28:32.773Z,92.23
2018-08-18T02:30:18.980Z,92.24
2018-08-18T02:31:53.968Z,92.46
2018-08-18T02:33:29.167Z,92.44
2018-08-18T02:35:05.355Z,92.54
2018-08-18T02:36:40.862Z,92.48
2018-08-18T02:38:16.937Z,92.12
2018-08-18T02:39:51.934Z,92.51
2018-08-18T02:41:29.287Z,92.88
2018-08-18T02:43:08.808Z,92.51
2018-08-18T02:44:44.072Z,92.79
2018-08-18T02:46:36.344Z,92.42
2018-08-18T02:48:16.432Z,92.42
2018-08-18T02:49:52.513Z,92.40
2018-08-18T02:51:27.509Z,92.53
2018-08-18T02:53:09.126Z,92.65
2018-08-18T02:54:44.133Z,92.42
2018-08-18T02:56:19.444Z,92.51
2018-08-18T02:57:54.849Z,92.45
2018-08-18T02:59:29.973Z,92.75
2018-08-18T03:01:05.369Z,92.39
2018-08-18T03:02:40.452Z,92.65
2018-08-18T03:04:16.143Z,92.65
2018-08-18T03:05:52.124Z,92.43
2018-08-18T03:07:29.665Z,92.53
2018-08-18T03:09:06.416Z,92.56
2018-08-18T03:10:41.778Z,92.96
2018-08-18T03:12:16.691Z,92.64
2018-08-18T03:13:51.753Z,92.21
2018-08-18T03:16:01.856Z,92.83
2018-08-18T03:17:36.822Z,92.65
2018-08-18T03:19:15.526Z,92.80
2018-08-18T03:20:50.464Z,92.82
2018-08-18T03:22:29.457Z,92.52
2018-08-18T03:24:11.922Z,93.04
2018-08-18T03:25:47.375Z,93.06
2018-08-18T03:27:26.047Z,93.10
2018-08-18T03:29:01.019Z,92.61
2018-08-18T03:30:36.504Z,92.95
2018-08-18T03:32:12.190Z,92.82
2018-08-18T03:33:47.473Z,92.94
2018-08-18T03:35:22.790Z,92.74
2018-08-18T03:36:58.112Z,92.78
2018-08-18T03:38:34.857Z,92.66
2018-08-18T03:40:09.867Z,93.15
2018-08-18T03:41:45.030Z,93.22
2018-08-18T03:43:19.888Z,92.66
2018-08-18T03:44:55.718Z,93.24
2018-08-18T03:46:32.148Z,92.93
2018-08-18T03:48:07.188Z,92.78
2018-08-18T03:49:42.114Z,92.79
2018-08-18T03:51:17.242Z,93.03
2018-08-18T03:52:52.147Z,92.92
2018-08-18T03:54:28.457Z,93.21
2018-08-18T03:56:03.503Z,93.21
2018-08-18T03:57:47.423Z,92.95
2018-08-18T03:59:22.383Z,93.28
2018-08-18T04:00:57.322Z,92.96
2018-08-18T04:02:32.594Z,92.78
2018-08-18T04:04:10.676Z,93.29
2018-08-18T04:05:45.572Z,93.06
2018-08-18T04:07:20.549Z,93.06
2018-08-18T04:08:55.504Z,92.93
2018-08-18T04:10:31.888Z,93.19
2018-08-18T04:12:09.118Z,93.23
2018-08-18T04:13:44.391Z,93.68
2018-08-18T04:15:20.774Z,93.15
2018-08-18T04:16:57.536Z,93.00
2018-08-18T04:18:34.907Z,93.33
2018-08-18T04:20:09.912Z,93.08
2018-08-18T04:21:44.924Z,93.06
2018-08-18T04:23:19.922Z,92.99
2018-08-18T04:24:56.843Z,93.16
2018-08-18T04:26:32.192Z,93.16
2018-08-18T04:28:07.235Z,93.10
2018-08-18T04:29:42.157Z,92.90
2018-08-18T04:31:21.054Z,93.20
2018-08-18T04:33:03.308Z,93.14
2018-08-18T04:34:38.486Z,93.31
2018-08-18T04:36:15.031Z,93.21
2018-08-18T04:37:50.546Z,93.40
2018-08-18T04:39:25.464Z,93.07
2018-08-18T04:41:00.911Z,93.31
2018-08-18T04:42:35.911Z,93.37
2018-08-18T04:44:10.890Z,92.80
2018-08-18T04:45:46.912Z,93.10
2018-08-18T04:47:31.007Z,92.70
2018-08-18T04:49:06.200Z,93.26
2018-08-18T04:50:41.191Z,93.28
2018-08-18T04:52:16.159Z,92.84
2018-08-18T04:53:51.205Z,92.77
2018-08-18T04:55:26.497Z,92.75
2018-08-18T04:57:01.525Z,92.66
2018-08-18T04:58:38.255Z,92.80
2018-08-18T05:00:14.972Z,92.33
2018-08-18T05:01:49.918Z,92.81
2018-08-18T05:03:27.331Z,93.03
2018-08-18T05:05:02.258Z,92.27
2018-08-18T05:06:39.924Z,92.45
2018-08-18T05:08:15.035Z,92.31
2018-08-18T05:09:51.070Z,92.44
2018-08-18T05:11:26.214Z,92.49
2018-08-18T05:13:01.758Z,92.29
2018-08-18T05:14:36.749Z,92.41
2018-08-18T05:16:12.630Z,92.21
2018-08-18T05:17:51.947Z,92.57
2018-08-18T05:19:27.633Z,92.51
2018-08-18T05:21:02.642Z,92.44
2018-08-18T05:22:38.609Z,92.53
2018-08-18T05:24:24.403Z,92.78
2018-08-18T05:25:59.684Z,92.60
2018-08-18T05:27:34.638Z,92.34
2018-08-18T05:29:09.603Z,92.47
2018-08-18T05:30:44.794Z,92.00
2018-08-18T05:32:25.939Z,92.27
2018-08-18T05:34:01.594Z,92.23
2018-08-18T05:35:37.257Z,92.35
2018-08-18T05:37:12.325Z,92.37
2018-08-18T05:38:47.325Z,92.43
2018-08-18T05:40:24.565Z,92.18
2018-08-18T05:42:07.490Z,92.25
2018-08-18T05:43:42.490Z,92.09
2018-08-18T05:45:24.629Z,92.14
2018-08-18T05:46:59.785Z,92.02
2018-08-18T05:48:36.497Z,91.67
2018-08-18T05:50:11.782Z,92.12
2018-08-18T05:51:51.162Z,92.76
2018-08-18T05:53:28.922Z,92.35
2018-08-18T05:55:03.818Z,92.35
2018-08-18T05:56:38.969Z,92.02
2018-08-18T05:58:14.256Z,91.46
2018-08-18T05:59:49.586Z,91.86
2018-08-18T06:01:28.627Z,91.55
2018-08-18T06:03:03.740Z,92.02
2018-08-18T06:04:40.739Z,91.37
2018-08-18T06:06:16.582Z,90.23
2018-08-18T06:07:51.937Z,91.34
2018-08-18T06:09:27.561Z,90.13
2018-08-18T06:11:02.505Z,90.42
2018-08-18T06:12:38.208Z,90.16
2018-08-18T06:14:14.338Z,88.94
2018-08-18T06:16:05.166Z,88.63
2018-08-18T06:17:40.603Z,87.90
2018-08-18T06:19:15.970Z,86.16
2018-08-18T06:20:51.055Z,85.11
2018-08-18T06:22:26.117Z,84.25
2018-08-18T06:24:01.719Z,82.28
2018-08-18T06:25:36.860Z,81.76
2018-08-18T06:27:14.730Z,80.56
2018-08-18T06:28:49.728Z,79.97
2018-08-18T06:30:24.866Z,79.33
2018-08-18T06:32:01.266Z,78.45
2018-08-18T06:33:36.702Z,77.05
2018-08-18T06:35:11.954Z,75.84
2018-08-18T06:36:47.696Z,75.03
2018-08-18T06:38:23.715Z,73.32
2018-08-18T06:40:00.347Z,71.30
2018-08-18T06:41:36.783Z,70.75
2018-08-18T06:43:12.242Z,69.76
2018-08-18T06:44:47.242Z,68.98
2018-08-18T06:46:22.622Z,66.97
2018-08-18T06:48:13.474Z,68.18
2018-08-18T06:49:48.515Z,66.37
2018-08-18T06:51:23.994Z,64.32
2018-08-18T06:52:59.882Z,62.08
2018-08-18T06:54:35.311Z,63.14
2018-08-18T06:56:12.876Z,62.82
2018-08-18T06:57:52.408Z,62.20
2018-08-18T06:59:27.894Z,61.21
2018-08-18T07:01:03.734Z,59.74
2018-08-18T07:02:41.639Z,58.65
2018-08-18T07:04:20.717Z,59.45
2018-08-18T07:05:57.054Z,57.39
2018-08-18T07:07:33.905Z,57.71
2018-08-18T07:09:10.222Z,57.63
2018-08-18T07:10:46.265Z,57.39
2018-08-18T07:12:22.699Z,56.55
2018-08-18T07:14:03.139Z,56.36
2018-08-18T07:15:39.348Z,55.65
2018-08-18T07:17:14.837Z,54.45
2018-08-18T07:18:52.059Z,54.12
2018-08-18T07:20:28.632Z,53.34
2018-08-18T07:22:04.746Z,53.17
2018-08-18T07:23:41.722Z,53.90
2018-08-18T07:25:19.236Z,53.31
2018-08-18T07:26:55.610Z,54.24
2018-08-18T07:28:34.938Z,51.98
2018-08-18T07:30:16.685Z,53.15
2018-08-18T07:31:55.793Z,53.19
2018-08-18T07:33:33.699Z,53.51
2018-08-18T07:35:09.259Z,53.62
2018-08-18T07:36:44.654Z,52.49
2018-08-18T07:38:20.632Z,52.28
2018-08-18T07:39:57.169Z,52.17
2018-08-18T07:41:32.803Z,50.86
2018-08-18T07:43:09.367Z,51.45
2018-08-18T07:44:45.373Z,49.58
2018-08-18T07:46:22.433Z,48.53
2018-08-18T07:47:59.451Z,48.44
2018-08-18T07:49:35.266Z,48.87
2018-08-18T07:51:10.681Z,48.27
2018-08-18T07:52:47.632Z,49.07
2018-08-18T07:54:24.077Z,49.64
2018-08-18T07:56:00.291Z,49.19
2018-08-18T07:57:41.663Z,49.46
2018-08-18T07:59:17.400Z,49.80
2018-08-18T08:00:53.751Z,50.78
2018-08-18T08:02:30.864Z,50.27
2018-08-18T08:04:08.361Z,51.19
2018-08-18T08:05:44.535Z,50.63
2018-08-18T08:07:20.763Z,49.78
2018-08-18T08:08:55.718Z,49.55
2018-08-18T08:10:31.479Z,49.44
2018-08-18T08:12:07.228Z,48.04
2018-08-18T08:13:43.389Z,48.70
2018-08-18T08:15:18.601Z,49.45
2018-08-18T08:16:54.153Z,48.66
2018-08-18T08:18:31.046Z,48.52
2018-08-18T08:20:09.044Z,48.94
2018-08-18T08:21:44.729Z,47.50
2018-08-18T08:23:21.288Z,47.53
2018-08-18T08:24:56.908Z,47.93
2018-08-18T08:26:32.055Z,47.13
2018-08-18T08:28:08.880Z,46.69
2018-08-18T08:29:45.177Z,47.08
2018-08-18T08:31:24.512Z,47.11
2018-08-18T08:33:01.710Z,46.66
2018-08-18T08:34:47.435Z,47.12
2018-08-18T08:36:23.336Z,47.74
2018-08-18T08:37:58.934Z,46.40
2018-08-18T08:39:35.646Z,46.50
2018-08-18T08:41:14.938Z,46.92
2018-08-18T08:42:54.555Z,47.55
2018-08-18T08:44:31.427Z,47.17
2018-08-18T08:46:07.015Z,46.85
2018-08-18T08:47:44.337Z,45.32
2018-08-18T08:49:21.413Z,44.56
2018-08-18T08:51:00.525Z,44.97
2018-08-18T08:52:50.206Z,45.29
2018-08-18T08:54:29.466Z,45.34
2018-08-18T08:56:04.930Z,44.17
2018-08-18T08:57:41.357Z,44.55
2018-08-18T08:59:17.722Z,45.77
2018-08-18T09:00:56.681Z,44.63
2018-08-18T09:02:32.571Z,43.83
2018-08-18T09:04:08.456Z,43.74
2018-08-18T09:05:46.192Z,44.93
2018-08-18T09:07:22.852Z,42.75
2018-08-18T09:09:05.497Z,42.87
2018-08-18T09:10:58.755Z,43.40
2018-08-18T09:12:36.272Z,43.33
2018-08-18T09:14:15.029Z,42.83
2018-08-18T09:15:52.318Z,43.23
2018-08-18T09:17:30.115Z,43.91
2018-08-18T09:19:05.201Z,42.73
2018-08-18T09:20:47.301Z,41.66
2018-08-18T09:22:23.357Z,42.74
2018-08-18T09:24:01.661Z,42.60
2018-08-18T09:25:38.134Z,43.38
2018-08-18T09:27:15.583Z,41.24
2018-08-18T09:28:52.216Z,41.74
2018-08-18T09:30:28.892Z,41.45
2018-08-18T09:32:08.691Z,42.57
2018-08-18T09:33:44.873Z,40.46
2018-08-18T09:35:23.706Z,40.38
2018-08-18T09:37:00.248Z,39.69
2018-08-18T09:38:42.467Z,40.25
2018-08-18T09:40:21.006Z,38.76
2018-08-18T09:41:56.200Z,38.92
2018-08-18T09:43:32.135Z,40.52
2018-08-18T09:45:13.518Z,40.15
2018-08-18T09:46:52.214Z,38.81
2018-08-18T09:48:32.033Z,39.16
2018-08-18T09:50:10.826Z,40.57
2018-08-18T09:51:58.913Z,39.75
2018-08-18T09:53:33.959Z,38.89
2018-08-18T09:55:12.656Z,38.20
2018-08-18T09:56:49.071Z,38.79
2018-08-18T09:58:29.985Z,36.77
2018-08-18T10:00:24.677Z,37.75
2018-08-18T10:02:07.616Z,39.35
2018-08-18T10:03:49.081Z,39.55
2018-08-18T10:05:30.888Z,40.39
2018-08-18T10:07:15.381Z,39.27
2018-08-18T10:08:57.216Z,38.02
2018-08-18T10:10:45.759Z,39.04
2018-08-18T10:14:21.006Z,38.48
2018-08-18T10:16:09.962Z,38.07
2018-08-18T10:18:00.641Z,38.79
2018-08-18T10:19:44.160Z,39.39
2018-08-18T10:21:30.512Z,40.55
2018-08-18T10:23:15.727Z,39.30
2018-08-18T10:25:00.603Z,39.27
2018-08-18T10:26:40.872Z,38.79
2018-08-18T10:30:09.520Z,37.86
2018-08-18T10:32:02.837Z,37.29
2018-08-18T10:33:44.316Z,38.21
2018-08-18T10:37:39.676Z,37.87
2018-08-18T10:39:20.315Z,37.75
2018-08-18T10:43:38.771Z,36.79
2018-08-18T10:45:30.437Z,36.72
2018-08-18T10:47:24.815Z,32.93
2018-08-18T10:49:06.521Z,33.73
2018-08-18T10:51:01.225Z,33.30
2018-08-18T10:52:50.521Z,34.12
2018-08-18T10:54:48.986Z,33.21
2018-08-18T10:56:34.825Z,32.97
2018-08-18T10:58:11.724Z,35.03
2018-08-18T10:59:55.181Z,34.83
2018-08-18T11:01:36.578Z,36.03
2018-08-18T11:03:18.570Z,35.33
2018-08-18T11:05:03.256Z,36.00
2018-08-18T11:06:45.023Z,34.35
2018-08-18T11:08:21.454Z,33.70
2018-08-18T11:09:59.922Z,33.09
2018-08-18T11:11:42.270Z,36.04
2018-08-18T11:13:20.050Z,35.04
2018-08-18T11:15:07.895Z,36.28
2018-08-18T11:16:50.088Z,35.07
2018-08-18T11:18:27.368Z,34.12
2018-08-18T11:20:13.444Z,36.07
2018-08-18T11:21:52.146Z,34.97
2018-08-18T11:23:29.671Z,35.23
2018-08-18T11:25:13.774Z,33.64
2018-08-18T11:26:52.204Z,35.15
2018-08-18T11:28:29.676Z,34.00
2018-08-18T11:30:08.092Z,32.87
2018-08-18T11:31:48.237Z,33.41
2018-08-18T11:33:37.553Z,31.87
2018-08-18T11:35:19.755Z,32.17
2018-08-18T11:37:04.266Z,32.24
2018-08-18T11:38:47.117Z,34.53
2018-08-18T11:40:23.921Z,32.85
2018-08-18T11:42:02.333Z,33.35
2018-08-18T11:43:47.817Z,33.13
2018-08-18T11:45:26.110Z,32.47
2018-08-18T11:47:03.614Z,32.83
2018-08-18T11:48:39.696Z,32.39
2018-08-18T11:50:16.790Z,31.40
2018-08-18T11:51:58.750Z,30.92
2018-08-18T11:53:37.471Z,32.92
2018-08-18T11:55:16.316Z,31.67
2018-08-18T11:56:56.619Z,32.45
2018-08-18T11:58:31.996Z,30.37
2018-08-18T12:00:08.980Z,32.49
2018-08-18T12:01:48.578Z,32.53
2018-08-18T12:03:29.675Z,31.85
2018-08-18T12:05:09.704Z,33.39
2018-08-18T12:06:50.433Z,32.56
2018-08-18T12:08:32.211Z,31.62
2018-08-18T12:10:08.753Z,31.05
2018-08-18T12:11:45.346Z,30.89
2018-08-18T12:13:27.911Z,32.15
2018-08-18T12:15:05.293Z,32.55
2018-08-18T12:16:41.279Z,33.37
2018-08-18T12:18:16.742Z,32.27
2018-08-18T12:19:56.420Z,32.42
2018-08-18T12:21:50.365Z,34.51
2018-08-18T12:23:26.111Z,32.92
2018-08-18T12:25:03.136Z,32.38
2018-08-18T12:26:38.704Z,33.97
2018-08-18T12:28:15.630Z,33.40
2018-08-18T12:29:52.405Z,32.67
2018-08-18T12:31:31.076Z,33.32
2018-08-18T12:33:12.977Z,34.04
2018-08-18T12:34:49.581Z,32.09
2018-08-18T12:36:25.856Z,31.27
2018-08-18T12:38:06.615Z,31.98
2018-08-18T12:39:42.198Z,32.51
2018-08-18T12:41:19.628Z,32.47
2018-08-18T12:42:55.470Z,34.00
2018-08-18T12:44:35.736Z,34.66
2018-08-18T12:46:13.876Z,36.00
2018-08-18T12:48:00.849Z,34.66
2018-08-18T12:49:38.245Z,35.16
2018-08-18T12:51:16.666Z,35.45
2018-08-18T12:52:52.740Z,35.56
2018-08-18T12:54:28.845Z,35.50
2018-08-18T12:56:04.191Z,33.67
2018-08-18T12:57:43.375Z,34.12
2018-08-18T12:59:20.370Z,34.43
2018-08-18T13:00:57.516Z,33.26
2018-08-18T13:02:45.100Z,33.46
2018-08-18T13:04:23.945Z,33.80
2018-08-18T13:05:59.825Z,32.79
2018-08-18T13:07:40.094Z,33.77
2018-08-18T13:09:22.841Z,32.92
2018-08-18T13:11:02.168Z,32.78
2018-08-18T13:12:39.737Z,34.26
2018-08-18T13:14:19.800Z,33.48
2018-08-18T13:15:58.805Z,34.03
2018-08-18T13:17:35.765Z,34.33
2018-08-18T13:19:14.563Z,32.42
2018-08-18T13:20:52.714Z,32.66
2018-08-18T13:22:29.130Z,32.32
2018-08-18T13:24:06.773Z,32.45
2018-08-18T13:25:43.594Z,33.41
2018-08-18T13:27:19.106Z,34.47
2018-08-18T13:28:58.833Z,34.63
2018-08-18T13:30:36.060Z,34.65
2018-08-18T13:32:15.093Z,33.88
2018-08-18T13:33:52.356Z,33.45
2018-08-18T13:35:28.542Z,33.63
2018-08-18T13:37:05.605Z,35.79
2018-08-18T13:38:46.481Z,36.47
2018-08-18T13:40:27.714Z,35.93
2018-08-18T13:42:14.656Z,37.26
2018-08-18T13:43:52.976Z,34.75
2018-08-18T13:45:43.878Z,35.41
2018-08-18T13:47:24.438Z,36.21
2018-08-18T13:49:04.103Z,35.54
2018-08-18T13:50:42.700Z,35.73
2018-08-18T13:52:20.929Z,34.76
2018-08-18T13:54:12.431Z,35.50
2018-08-18T13:55:50.623Z,36.32
2018-08-18T13:57:34.099Z,35.84
2018-08-18T13:59:13.861Z,35.97
2018-08-18T14:00:50.946Z,36.41
2018-08-18T14:02:30.147Z,36.72
2018-08-18T14:04:10.334Z,34.01
2018-08-18T14:05:47.081Z,35.35
2018-08-18T14:09:12.523Z,34.04
2018-08-18T14:10:51.467Z,33.85
2018-08-18T14:12:31.393Z,35.07
2018-08-18T14:14:08.825Z,34.63
2018-08-18T14:15:52.783Z,35.30
2018-08-18T14:17:34.347Z,34.90
2018-08-18T14:19:13.243Z,34.88
2018-08-18T14:21:07.138Z,35.57
2018-08-18T14:22:57.567Z,35.65
2018-08-18T14:24:37.496Z,35.73
2018-08-18T14:26:13.594Z,35.92
2018-08-18T14:27:57.499Z,36.21
2018-08-18T14:29:34.466Z,35.80
2018-08-18T14:31:11.594Z,35.79
2018-08-18T14:32:55.444Z,35.98
2018-08-18T14:34:36.787Z,37.32
2018-08-18T14:36:16.320Z,36.70
2018-08-18T14:37:52.275Z,36.97
2018-08-18T14:39:38.695Z,37.22
2018-08-18T14:41:15.021Z,35.71
2018-08-18T14:42:59.043Z,34.84
2018-08-18T14:44:37.745Z,35.23
2018-08-18T14:46:21.352Z,36.34
2018-08-18T14:47:59.053Z,35.92
2018-08-18T14:49:36.890Z,36.65
2018-08-18T14:51:12.557Z,36.53
2018-08-18T14:52:50.526Z,36.82
2018-08-18T14:54:34.360Z,37.23
2018-08-18T14:56:13.587Z,38.13
2018-08-18T14:57:56.504Z,37.14
2018-08-18T14:59:40.409Z,36.35
2018-08-18T15:01:17.259Z,37.19
2018-08-18T15:02:56.646Z,36.18
2018-08-18T15:04:35.227Z,35.03
2018-08-18T15:06:14.733Z,36.57
2018-08-18T15:08:04.596Z,35.81
2018-08-18T15:09:47.998Z,36.19
2018-08-18T15:11:24.876Z,36.88
2018-08-18T15:13:02.458Z,36.02
2018-08-18T15:14:39.934Z,35.49
2018-08-18T15:16:16.926Z,35.60
2018-08-18T15:17:54.686Z,34.26
2018-08-18T15:19:30.617Z,35.00
2018-08-18T15:21:08.697Z,34.67
2018-08-18T15:22:45.585Z,34.64
2018-08-18T15:24:24.055Z,33.61
2018-08-18T15:26:05.461Z,35.62
2018-08-18T15:27:43.656Z,34.86
2018-08-18T15:29:20.358Z,35.10
2018-08-18T15:30:56.629Z,35.25
2018-08-18T15:32:34.935Z,34.96
2018-08-18T15:34:10.721Z,36.10
2018-08-18T15:35:46.942Z,37.23
2018-08-18T15:37:23.396Z,36.58
2018-08-18T15:39:00.510Z,36.63
2018-08-18T15:40:36.543Z,35.07
2018-08-18T15:42:11.959Z,35.75
2018-08-18T15:43:47.808Z,35.44
2018-08-18T15:45:27.740Z,36.91
2018-08-18T15:47:03.798Z,36.04
2018-08-18T15:48:43.763Z,35.79
2018-08-18T15:50:25.847Z,37.42
2018-08-18T15:52:02.540Z,38.10
2018-08-18T15:54:03.586Z,37.63
2018-08-18T15:55:41.182Z,38.64
2018-08-18T15:57:27.103Z,37.77
2018-08-18T15:59:07.153Z,38.81
2018-08-18T16:00:44.296Z,38.92
2018-08-18T16:02:20.541Z,38.87
2018-08-18T16:03:59.594Z,39.70
2018-08-18T16:05:40.991Z,40.08
2018-08-18T16:07:18.334Z,40.66
2018-08-18T16:08:54.013Z,41.18
2018-08-18T16:10:33.325Z,40.92
2018-08-18T16:12:09.919Z,40.84
2018-08-18T16:13:49.150Z,42.04
2018-08-18T16:15:27.365Z,41.81
2018-08-18T16:17:04.136Z,41.91
2018-08-18T16:18:42.016Z,41.79
2018-08-18T16:20:26.262Z,42.23
2018-08-18T16:22:04.528Z,41.55
2018-08-18T16:23:44.940Z,41.20
2018-08-18T16:25:32.197Z,42.10
2018-08-18T16:27:11.383Z,40.70
2018-08-18T16:28:48.365Z,41.57
2018-08-18T16:30:31.981Z,42.08
2018-08-18T16:32:28.372Z,41.75
2018-08-18T16:34:10.910Z,43.44
2018-08-18T16:35:50.923Z,41.66
2018-08-18T16:37:28.600Z,42.52
2018-08-18T16:39:06.132Z,42.41
2018-08-18T16:40:42.479Z,42.83
2018-08-18T16:42:22.626Z,43.22
2018-08-18T16:44:00.229Z,42.71
2018-08-18T16:47:22.194Z,43.44
2018-08-18T16:49:06.066Z,43.27
2018-08-18T16:50:49.008Z,43.85
2018-08-18T16:52:30.253Z,45.08
2018-08-18T16:54:19.103Z,44.25
2018-08-18T16:55:55.789Z,44.52
2018-08-18T16:57:32.913Z,45.14
2018-08-18T17:01:02.212Z,45.34
2018-08-18T17:02:43.124Z,45.37
2018-08-18T17:04:33.269Z,45.38
2018-08-18T17:06:13.301Z,45.53
2018-08-18T17:07:51.648Z,46.46
2018-08-18T17:09:43.824Z,46.87
2018-08-18T17:11:30.309Z,45.83
2018-08-18T17:13:10.892Z,46.19
2018-08-18T17:14:53.243Z,45.51
2018-08-18T17:16:36.339Z,47.15
2018-08-18T17:18:20.921Z,46.12
2018-08-18T17:20:01.496Z,46.24
2018-08-18T17:21:37.723Z,46.18
2018-08-18T17:23:16.940Z,46.76
2018-08-18T17:25:00.537Z,45.94
2018-08-18T17:26:51.082Z,46.46
2018-08-18T17:28:37.656Z,46.76
2018-08-18T17:30:22.341Z,46.34
2018-08-18T17:32:00.871Z,46.67
2018-08-18T17:33:42.356Z,46.43
2018-08-18T17:35:20.401Z,46.48
2018-08-18T17:36:57.892Z,46.41
2018-08-18T17:38:33.944Z,47.61
2018-08-18T17:40:11.816Z,46.95
2018-08-18T17:41:49.488Z,47.05
2018-08-18T17:43:33.646Z,47.92
2018-08-18T17:45:12.574Z,47.80
2018-08-18T17:46:55.711Z,47.49
2018-08-18T17:48:42.263Z,48.11
2018-08-18T17:50:19.302Z,47.89
2018-08-18T17:52:12.130Z,49.12
2018-08-18T17:53:57.024Z,48.71
2018-08-18T17:55:37.773Z,48.69
2018-08-18T17:59:03.735Z,48.65
2018-08-18T18:00:44.421Z,48.69
2018-08-18T18:02:20.672Z,49.63
2018-08-18T18:03:58.863Z,48.81
2018-08-18T18:05:39.244Z,49.04
2018-08-18T18:07:17.602Z,49.92
2018-08-18T18:08:53.213Z,50.24
2018-08-18T18:10:31.483Z,50.23
2018-08-18T18:12:39.063Z,51.14
2018-08-18T18:14:23.849Z,50.52
2018-08-18T18:16:00.501Z,50.77
2018-08-18T18:17:36.748Z,51.66
2018-08-18T18:19:14.622Z,51.02
2018-08-18T18:20:57.335Z,51.51
2018-08-18T18:22:40.643Z,51.35
2018-08-18T18:24:29.849Z,51.49
2018-08-18T18:26:20.072Z,52.32
2018-08-18T18:28:09.730Z,51.66
2018-08-18T18:31:42.324Z,53.02
2018-08-18T18:33:23.436Z,53.78
2018-08-18T18:35:09.550Z,54.75
2018-08-18T18:36:46.621Z,54.09
2018-08-18T18:38:26.683Z,54.12
2018-08-18T18:40:05.373Z,53.93
2018-08-18T18:41:42.156Z,54.59
2018-08-18T18:43:18.685Z,54.68
2018-08-18T18:45:04.198Z,55.45
2018-08-18T18:46:45.155Z,55.79
2018-08-18T18:48:33.881Z,55.71
2018-08-18T18:50:12.652Z,55.95
2018-08-18T18:51:50.804Z,55.83
2018-08-18T18:53:35.232Z,56.90
2018-08-18T18:55:17.521Z,57.77
2018-08-18T18:57:05.417Z,57.77
2018-08-18T18:58:49.237Z,58.01
2018-08-18T19:00:31.869Z,58.59
2018-08-18T19:02:11.401Z,59.32
2018-08-18T19:03:50.807Z,59.52
2018-08-18T19:05:32.644Z,59.66
2018-08-18T19:07:22.233Z,59.62
2018-08-18T19:11:01.290Z,61.13
2018-08-18T19:12:40.836Z,60.83
2018-08-18T19:14:20.406Z,61.19
2018-08-18T19:15:59.949Z,62.11
2018-08-18T19:17:44.072Z,61.98
2018-08-18T19:19:27.276Z,61.92
2018-08-18T19:21:21.556Z,62.57
2018-08-18T19:23:09.880Z,62.79
2018-08-18T19:24:59.054Z,63.16
2018-08-18T19:26:49.654Z,63.24
2018-08-18T19:28:36.242Z,63.60
2018-08-18T19:30:24.143Z,64.33
2018-08-18T19:32:11.564Z,64.36
2018-08-18T19:33:52.783Z,64.75
2018-08-18T19:35:40.707Z,64.15
2018-08-18T19:37:24.764Z,65.00
2018-08-18T19:39:06.235Z,65.33
2018-08-18T19:40:51.343Z,65.81
2018-08-18T19:42:29.298Z,66.43
2018-08-18T19:44:15.612Z,67.04
2018-08-18T19:45:55.772Z,67.26
2018-08-18T19:47:40.291Z,67.50
2018-08-18T19:49:31.299Z,67.01
2018-08-18T19:51:10.227Z,66.74
2018-08-18T19:52:49.534Z,66.80
2018-08-18T19:54:28.059Z,67.82
2018-08-18T19:56:06.682Z,68.13
2018-08-18T19:57:45.622Z,68.25
2018-08-18T19:59:23.392Z,67.94
2018-08-18T20:01:00.536Z,68.88
2018-08-18T20:02:51.164Z,69.08
2018-08-18T20:04:27.959Z,68.00
2018-08-18T20:06:10.390Z,68.26
2018-08-18T20:07:48.964Z,68.24
2018-08-18T20:09:27.218Z,68.68
2018-08-18T20:11:05.775Z,68.81
2018-08-18T20:12:49.430Z,68.63
2018-08-18T20:14:35.226Z,68.68
2018-08-18T20:16:16.439Z,69.38
2018-08-18T20:17:57.611Z,69.32
2018-08-18T20:19:34.837Z,70.00
2018-08-18T20:21:15.586Z,70.04
2018-08-18T20:22:57.191Z,70.26
2018-08-18T20:24:42.891Z,69.92
2018-08-18T20:26:24.333Z,70.47
2018-08-18T20:28:16.880Z,71.05
2018-08-18T20:30:04.937Z,70.62
2018-08-18T20:31:56.599Z,70.49
2018-08-18T20:33:37.270Z,70.64
2018-08-18T20:35:15.394Z,71.53
2018-08-18T20:36:57.377Z,71.93
2018-08-18T20:38:42.242Z,71.51
2018-08-18T20:40:23.333Z,72.05
2018-08-18T20:42:01.865Z,72.59
2018-08-18T20:43:44.196Z,72.30
2018-08-18T20:45:23.335Z,71.57
2018-08-18T20:47:09.748Z,71.97
2018-08-18T20:48:49.862Z,72.28
2018-08-18T20:50:31.249Z,72.13
2018-08-18T20:52:08.161Z,72.04
2018-08-18T20:53:46.075Z,72.98
2018-08-18T20:55:29.369Z,73.22
2018-08-18T20:57:07.274Z,72.71
2018-08-18T20:58:49.766Z,73.02
2018-08-18T21:00:26.722Z,72.33
2018-08-18T21:02:07.174Z,72.48
2018-08-18T21:03:53.557Z,72.86
2018-08-18T21:05:31.465Z,72.58
2018-08-18T21:07:13.103Z,73.46
2018-08-18T21:08:54.912Z,72.56
2018-08-18T21:10:36.778Z,72.37
2018-08-18T21:12:13.744Z,72.31
2018-08-18T21:13:55.211Z,72.51
2018-08-18T21:15:32.761Z,72.15
2018-08-18T21:17:12.393Z,71.66
2018-08-18T21:18:52.234Z,70.74
2018-08-18T21:20:31.888Z,70.92
2018-08-18T21:24:04.547Z,71.64
2018-08-18T21:25:52.978Z,72.11
2018-08-18T21:27:31.396Z,72.91
2018-08-18T21:29:14.473Z,71.70
2018-08-18T21:30:52.495Z,72.05
2018-08-18T21:32:31.407Z,72.16
2018-08-18T21:34:13.058Z,73.12
2018-08-18T21:35:51.492Z,72.89
2018-08-18T21:37:38.224Z,72.74
2018-08-18T21:39:21.111Z,72.82